createdAt,value
2023-02-19T00:01:16.213Z,10.85
2023-02-19T00:03:49.054Z,10.70
2023-02-19T00:06:15.583Z,9.90
2023-02-19T00:08:42.078Z,10.75
2023-02-19T00:11:13.530Z,11.57
2023-02-19T00:13:42.829Z,11.65
2023-02-19T00:16:10.179Z,12.68
2023-02-19T00:18:36.768Z,10.65
2023-02-19T00:21:03.499Z,12.48
2023-02-19T00:23:30.769Z,10.38
2023-02-19T00:26:03.247Z,11.23
2023-02-19T00:28:35.865Z,8.23
2023-02-19T00:31:12.509Z,10.85
2023-02-19T00:33:39.170Z,9.07
2023-02-19T00:36:06.168Z,10.77
2023-02-19T00:38:36.671Z,6.97
2023-02-19T00:41:19.071Z,7.97
2023-02-19T00:43:52.742Z,11.63
2023-02-19T00:46:25.406Z,8.10
2023-02-19T00:48:52.740Z,8.50
2023-02-19T00:51:20.763Z,7.90
2023-02-19T00:53:47.241Z,7.25
2023-02-19T00:56:14.055Z,9.43
2023-02-19T00:58:40.697Z,12.48
2023-02-19T01:01:08.147Z,10.05
2023-02-19T01:03:36.481Z,10.98
2023-02-19T01:06:04.715Z,7.18
2023-02-19T01:08:31.387Z,7.93
2023-02-19T01:10:58.841Z,8.23
2023-02-19T01:13:26.027Z,11.07
2023-02-19T01:15:52.581Z,8.55
2023-02-19T01:18:19.106Z,8.65
2023-02-19T01:20:45.735Z,7.65
2023-02-19T01:23:14.009Z,9.82
2023-02-19T01:25:42.284Z,9.30
2023-02-19T01:28:09.384Z,9.50
2023-02-19T01:30:37.213Z,7.82
2023-02-19T01:33:08.355Z,8.95
2023-02-19T01:35:38.621Z,7.20
2023-02-19T01:38:05.248Z,7.55
2023-02-19T01:40:31.736Z,7.70
2023-02-19T01:42:58.267Z,7.25
2023-02-19T01:45:24.705Z,7.65
2023-02-19T01:48:01.571Z,7.32
2023-02-19T01:50:32.100Z,6.65
2023-02-19T01:53:01.987Z,5.95
2023-02-19T01:55:28.522Z,7.15
2023-02-19T01:57:56.387Z,8.10
2023-02-19T02:00:24.433Z,10.30
2023-02-19T02:02:53.611Z,9.40
2023-02-19T02:05:29.721Z,7.72
2023-02-19T02:10:42.989Z,13.50
2023-02-19T02:13:09.590Z,11.13
2023-02-19T02:16:16.053Z,17.70
2023-02-19T02:19:05.012Z,12.60
2023-02-19T02:21:54.075Z,11.27
2023-02-19T02:24:28.841Z,11.13
2023-02-19T02:27:13.574Z,8.00
2023-02-19T02:30:03.993Z,8.55
2023-02-19T02:32:40.473Z,8.60
2023-02-19T02:35:13.555Z,7.97
2023-02-19T02:37:43.582Z,9.93
2023-02-19T02:40:12.242Z,8.75
2023-02-19T02:42:40.234Z,8.45
2023-02-19T02:45:35.311Z,9.57
2023-02-19T02:48:09.194Z,10.68
2023-02-19T02:50:41.830Z,8.18
2023-02-19T02:53:35.169Z,12.73
2023-02-19T02:56:03.184Z,9.23
2023-02-19T02:58:31.517Z,8.65
2023-02-19T03:01:22.543Z,10.23
2023-02-19T03:03:54.805Z,8.02
2023-02-19T03:06:23.737Z,9.93
2023-02-19T03:09:11.537Z,7.57
2023-02-19T03:12:00.265Z,9.07
2023-02-19T03:14:53.487Z,9.52
2023-02-19T03:17:46.171Z,10.73
2023-02-19T03:20:16.064Z,8.45
2023-02-19T03:22:45.616Z,11.68
2023-02-19T03:25:37.513Z,9.45
2023-02-19T03:28:07.004Z,9.68
2023-02-19T03:30:38.508Z,8.63
2023-02-19T03:33:11.460Z,7.70
2023-02-19T03:35:43.372Z,8.13
2023-02-19T03:38:22.098Z,7.65
2023-02-19T03:40:58.499Z,9.23
2023-02-19T03:43:58.821Z,7.55
2023-02-19T03:46:35.373Z,8.10
2023-02-19T03:49:09.141Z,10.88
2023-02-19T03:51:55.192Z,8.63
2023-02-19T03:54:38.369Z,8.93
2023-02-19T03:57:15.936Z,11.23
2023-02-19T03:59:52.579Z,10.77
2023-02-19T04:02:27.495Z,11.55
2023-02-19T04:05:17.748Z,10.40
2023-02-19T04:07:50.765Z,12.20
2023-02-19T04:10:19.113Z,12.40
2023-02-19T04:12:52.881Z,11.20
2023-02-19T04:15:25.025Z,14.80
2023-02-19T04:17:57.351Z,14.07
2023-02-19T04:20:27.816Z,13.45
2023-02-19T04:22:55.025Z,14.73
2023-02-19T04:25:24.022Z,14.85
2023-02-19T04:27:50.657Z,17.23
2023-02-19T04:30:17.550Z,15.75
2023-02-19T04:32:44.077Z,16.63
2023-02-19T04:35:10.633Z,14.18
2023-02-19T04:37:37.129Z,17.60
2023-02-19T04:40:04.151Z,14.63
2023-02-19T04:42:30.723Z,13.38
2023-02-19T04:44:57.182Z,13.90
2023-02-19T04:47:23.693Z,13.77
2023-02-19T04:49:50.207Z,11.50
2023-02-19T04:52:16.753Z,13.88
2023-02-19T04:54:43.226Z,11.80
2023-02-19T04:57:09.726Z,11.23
2023-02-19T04:59:36.244Z,10.60
2023-02-19T05:02:02.745Z,10.30
2023-02-19T05:04:29.285Z,9.95
2023-02-19T05:06:55.788Z,10.98
2023-02-19T05:09:22.304Z,10.43
2023-02-19T05:11:48.774Z,10.52
2023-02-19T05:14:15.290Z,10.48
2023-02-19T05:16:41.786Z,9.60
2023-02-19T05:19:11.777Z,9.43
2023-02-19T05:21:40.390Z,9.65
2023-02-19T05:24:07.646Z,10.20
2023-02-19T05:26:34.770Z,10.90
2023-02-19T05:29:01.491Z,8.35
2023-02-19T05:31:28.282Z,9.73
2023-02-19T05:33:57.616Z,10.57
2023-02-19T05:36:24.374Z,12.13
2023-02-19T05:38:57.599Z,10.63
2023-02-19T05:41:28.663Z,11.55
2023-02-19T05:43:55.848Z,11.20
2023-02-19T05:46:25.733Z,13.40
2023-02-19T05:48:53.664Z,11.60
2023-02-19T05:51:22.452Z,10.65
2023-02-19T05:53:49.772Z,11.35
2023-02-19T05:56:35.104Z,10.00
2023-02-19T05:59:15.038Z,8.23
2023-02-19T06:01:41.796Z,10.18
2023-02-19T06:04:10.303Z,10.60
2023-02-19T06:06:37.405Z,8.70
2023-02-19T06:09:05.220Z,10.38
2023-02-19T06:11:32.454Z,9.60
2023-02-19T06:13:59.051Z,8.52
2023-02-19T06:16:26.242Z,9.63
2023-02-19T06:18:52.851Z,8.85
2023-02-19T06:21:19.805Z,11.30
2023-02-19T06:23:46.826Z,9.40
2023-02-19T06:26:17.801Z,10.25
2023-02-19T06:28:45.604Z,9.52
2023-02-19T06:31:13.449Z,8.93
2023-02-19T06:33:41.152Z,8.70
2023-02-19T06:36:12.293Z,9.73
2023-02-19T06:38:39.100Z,8.35
2023-02-19T06:41:06.552Z,8.85
2023-02-19T06:43:33.936Z,7.18
2023-02-19T06:46:07.043Z,9.20
2023-02-19T06:48:34.536Z,9.75
2023-02-19T06:51:01.171Z,10.77
2023-02-19T06:53:27.769Z,8.13
2023-02-19T06:56:20.750Z,8.40
2023-02-19T06:58:47.270Z,7.80
2023-02-19T07:01:13.966Z,6.90
2023-02-19T07:03:40.537Z,9.07
2023-02-19T07:06:07.253Z,9.38
2023-02-19T07:08:33.881Z,9.65
2023-02-19T07:11:00.445Z,10.40
2023-02-19T07:13:27.531Z,9.70
2023-02-19T07:16:03.501Z,9.88
2023-02-19T07:18:31.028Z,10.85
2023-02-19T07:21:10.262Z,9.98
2023-02-19T07:23:37.628Z,10.60
2023-02-19T07:26:05.084Z,11.07
2023-02-19T07:28:31.601Z,10.52
2023-02-19T07:31:02.085Z,11.15
2023-02-19T07:33:28.717Z,12.15
2023-02-19T07:35:55.185Z,12.40
2023-02-19T07:38:23.745Z,14.90
2023-02-19T07:40:54.804Z,13.73
2023-02-19T07:43:22.139Z,10.77
2023-02-19T07:45:48.813Z,9.88
2023-02-19T07:48:15.376Z,9.07
2023-02-19T07:50:41.935Z,7.47
2023-02-19T07:53:08.596Z,8.52
2023-02-19T07:55:35.348Z,7.57
2023-02-19T07:58:01.867Z,7.28
2023-02-19T08:00:28.338Z,6.72
2023-02-19T08:03:00.661Z,8.00
2023-02-19T08:05:29.015Z,6.07
2023-02-19T08:07:55.508Z,7.53
2023-02-19T08:10:40.963Z,7.05
2023-02-19T08:13:22.522Z,9.35
2023-02-19T08:15:50.494Z,5.10
2023-02-19T08:18:18.166Z,11.20
2023-02-19T08:20:45.025Z,8.55
2023-02-19T08:23:12.392Z,8.55
2023-02-19T08:25:39.929Z,8.60
2023-02-19T08:28:07.898Z,8.77
2023-02-19T08:30:35.296Z,8.27
2023-02-19T08:33:02.562Z,7.60
2023-02-19T08:35:29.217Z,7.35
2023-02-19T08:37:59.323Z,6.47
2023-02-19T08:40:26.652Z,6.45
2023-02-19T08:42:53.592Z,5.95
2023-02-19T08:45:20.157Z,6.57
2023-02-19T08:47:47.046Z,8.23
2023-02-19T08:50:13.615Z,6.65
2023-02-19T08:52:40.137Z,7.78
2023-02-19T08:55:07.295Z,8.25
2023-02-19T08:57:37.702Z,8.88
2023-02-19T09:00:05.934Z,6.32
2023-02-19T09:02:32.622Z,9.13
2023-02-19T09:04:59.370Z,8.88
2023-02-19T09:07:25.986Z,6.30
2023-02-19T09:09:53.081Z,6.85
2023-02-19T09:12:19.706Z,11.82
2023-02-19T09:14:46.765Z,5.88
2023-02-19T09:17:13.368Z,7.18
2023-02-19T09:19:39.850Z,6.40
2023-02-19T09:22:06.823Z,6.45
2023-02-19T09:24:33.455Z,5.72
2023-02-19T09:26:59.987Z,5.22
2023-02-19T09:29:28.260Z,7.03
2023-02-19T09:31:58.945Z,4.40
2023-02-19T09:34:27.123Z,4.85
2023-02-19T09:36:54.053Z,5.47
2023-02-19T09:39:21.552Z,5.03
2023-02-19T09:41:55.120Z,6.72
2023-02-19T09:44:29.402Z,5.70
2023-02-19T09:46:56.552Z,9.45
2023-02-19T09:49:35.464Z,7.22
2023-02-19T09:52:18.487Z,5.93
2023-02-19T09:54:47.084Z,5.00
2023-02-19T09:57:16.348Z,6.65
2023-02-19T09:59:51.782Z,5.68
2023-02-19T10:02:23.041Z,5.90
2023-02-19T10:04:51.392Z,6.40
2023-02-19T10:07:28.281Z,4.93
2023-02-19T10:10:01.201Z,4.82
2023-02-19T10:12:30.758Z,9.45
2023-02-19T10:15:09.595Z,6.25
2023-02-19T10:17:37.428Z,7.22
2023-02-19T10:20:04.526Z,6.68
2023-02-19T10:22:35.891Z,5.63
2023-02-19T10:25:02.824Z,4.57
2023-02-19T10:27:33.240Z,5.65
2023-02-19T10:30:00.585Z,5.22
2023-02-19T10:32:27.677Z,5.60
2023-02-19T10:35:15.072Z,2.97
2023-02-19T10:37:44.714Z,6.18
2023-02-19T10:40:20.554Z,5.07
2023-02-19T10:42:49.255Z,4.50
2023-02-19T10:45:47.814Z,6.10
2023-02-19T10:48:28.262Z,4.55
2023-02-19T10:51:00.020Z,6.72
2023-02-19T10:53:42.447Z,4.38
2023-02-19T10:56:13.032Z,5.10
2023-02-19T10:58:43.420Z,7.60
2023-02-19T11:01:19.594Z,4.47
2023-02-19T11:06:20.718Z,9.02
2023-02-19T11:08:51.001Z,4.93
2023-02-19T11:11:30.884Z,4.43
2023-02-19T11:13:59.053Z,5.75
2023-02-19T11:16:42.430Z,4.90
2023-02-19T11:19:23.654Z,4.78
2023-02-19T11:21:50.470Z,4.47
2023-02-19T11:24:37.316Z,4.63
2023-02-19T11:27:06.579Z,4.70
2023-02-19T11:29:34.921Z,7.20
2023-02-19T11:32:25.420Z,4.22
2023-02-19T11:34:52.689Z,6.53
2023-02-19T11:37:21.438Z,6.80
2023-02-19T11:39:50.484Z,5.18
2023-02-19T11:42:33.564Z,5.93
2023-02-19T11:45:18.114Z,6.53
2023-02-19T11:47:59.445Z,6.15
2023-02-19T11:50:59.748Z,5.18
2023-02-19T11:53:28.760Z,4.63
2023-02-19T11:56:34.006Z,4.28
2023-02-19T11:59:05.858Z,5.93
2023-02-19T12:01:51.024Z,4.60
2023-02-19T12:04:25.782Z,9.75
2023-02-19T12:07:10.786Z,5.45
2023-02-19T12:09:45.753Z,4.20
2023-02-19T12:12:18.083Z,4.97
2023-02-19T12:14:58.828Z,5.30
2023-02-19T12:17:53.084Z,3.67
2023-02-19T12:20:32.245Z,7.07
2023-02-19T12:23:33.682Z,4.85
2023-02-19T12:26:30.595Z,4.32
2023-02-19T12:29:32.192Z,4.60
2023-02-19T12:32:17.050Z,5.45
2023-02-19T12:35:07.904Z,4.78
2023-02-19T12:38:12.065Z,5.05
2023-02-19T12:40:50.095Z,5.03
2023-02-19T12:43:20.919Z,4.13
2023-02-19T12:45:58.155Z,6.68
2023-02-19T12:48:30.839Z,4.90
2023-02-19T12:51:23.383Z,5.70
2023-02-19T12:53:56.137Z,4.63
2023-02-19T12:56:32.006Z,4.38
2023-02-19T12:59:03.332Z,5.68
2023-02-19T13:01:36.045Z,5.43
2023-02-19T13:04:22.702Z,4.55
2023-02-19T13:09:37.065Z,4.65
2023-02-19T13:12:11.596Z,5.00
2023-02-19T13:14:45.229Z,5.70
2023-02-19T13:17:29.640Z,9.48
2023-02-19T13:20:09.621Z,4.18
2023-02-19T13:23:05.089Z,4.63
2023-02-19T13:26:22.466Z,4.88
2023-02-19T13:29:07.862Z,5.53
2023-02-19T13:32:12.089Z,4.05
2023-02-19T13:34:50.520Z,3.83
2023-02-19T13:37:17.890Z,6.57
2023-02-19T13:39:53.760Z,5.85
2023-02-19T13:42:37.042Z,5.15
2023-02-19T13:45:06.461Z,3.35
2023-02-19T13:47:55.080Z,4.70
2023-02-19T13:50:33.209Z,4.00
2023-02-19T13:53:01.579Z,8.68
2023-02-19T13:55:43.287Z,3.47
2023-02-19T13:58:39.817Z,4.88
2023-02-19T14:01:10.748Z,2.30
2023-02-19T14:03:37.469Z,3.00
2023-02-19T14:06:06.963Z,5.68
2023-02-19T14:08:52.682Z,5.55
2023-02-19T14:11:41.910Z,4.93
2023-02-19T14:14:25.533Z,4.20
2023-02-19T14:16:56.233Z,8.65
2023-02-19T14:19:41.263Z,4.80
2023-02-19T14:22:45.043Z,7.50
2023-02-19T14:25:38.451Z,8.48
2023-02-19T14:28:17.057Z,4.43
2023-02-19T14:30:55.941Z,3.83
2023-02-19T14:33:26.913Z,6.38
2023-02-19T14:36:05.972Z,4.50
2023-02-19T14:38:57.357Z,3.83
2023-02-19T14:41:24.976Z,4.30
2023-02-19T14:43:54.614Z,5.63
2023-02-19T14:46:31.257Z,4.70
2023-02-19T14:49:25.217Z,3.35
2023-02-19T14:51:59.406Z,5.60
2023-02-19T14:55:03.256Z,5.60
2023-02-19T14:57:34.907Z,2.80
2023-02-19T15:00:04.557Z,4.10
2023-02-19T15:02:32.469Z,3.15
2023-02-19T15:04:59.100Z,3.75
2023-02-19T15:07:31.623Z,5.30
2023-02-19T15:10:05.020Z,5.40
2023-02-19T15:12:53.773Z,5.90
2023-02-19T15:15:27.132Z,5.65
2023-02-19T15:17:55.331Z,5.30
2023-02-19T15:20:28.036Z,5.82
2023-02-19T15:22:56.379Z,5.60
2023-02-19T15:25:27.161Z,6.88
2023-02-19T15:27:53.663Z,4.72
2023-02-19T15:30:24.865Z,7.43
2023-02-19T15:33:01.631Z,5.22
2023-02-19T15:35:30.002Z,6.30
2023-02-19T15:37:56.948Z,9.07
2023-02-19T15:40:31.432Z,9.10
2023-02-19T15:43:00.161Z,5.95
2023-02-19T15:45:43.516Z,5.85
2023-02-19T15:48:20.489Z,5.30
2023-02-19T15:50:56.090Z,8.48
2023-02-19T15:53:26.966Z,7.10
2023-02-19T15:56:14.866Z,8.32
2023-02-19T15:58:51.528Z,7.95
2023-02-19T16:01:28.631Z,8.93
2023-02-19T16:03:55.995Z,7.93
2023-02-19T16:06:26.978Z,8.07
2023-02-19T16:09:06.776Z,7.82
2023-02-19T16:11:39.291Z,10.88
2023-02-19T16:14:32.104Z,9.23
2023-02-19T16:17:11.454Z,7.25
2023-02-19T16:19:55.616Z,7.60
2023-02-19T16:22:25.611Z,8.00
2023-02-19T16:24:57.745Z,8.27
2023-02-19T16:27:31.606Z,6.60
2023-02-19T16:29:58.842Z,8.25
2023-02-19T16:32:25.393Z,8.25
2023-02-19T16:34:52.194Z,9.80
2023-02-19T16:37:35.109Z,7.88
2023-02-19T16:40:07.327Z,9.80
2023-02-19T16:42:34.629Z,14.27
2023-02-19T16:45:01.133Z,9.20
2023-02-19T16:47:38.354Z,7.10
2023-02-19T16:50:15.784Z,6.80
2023-02-19T16:52:53.467Z,7.75
2023-02-19T16:55:20.169Z,7.72
2023-02-19T16:57:46.787Z,8.25
2023-02-19T17:00:21.761Z,8.25
2023-02-19T17:02:50.735Z,9.88
2023-02-19T17:05:19.128Z,6.38
2023-02-19T17:07:45.999Z,9.27
2023-02-19T17:10:24.197Z,7.70
2023-02-19T17:12:52.220Z,6.45
2023-02-19T17:15:19.098Z,6.28
2023-02-19T17:17:45.767Z,7.75
2023-02-19T17:20:24.241Z,7.60
2023-02-19T17:22:50.782Z,8.05
2023-02-19T17:25:17.299Z,7.38
2023-02-19T17:27:43.823Z,12.55
2023-02-19T17:30:16.636Z,9.23
2023-02-19T17:32:43.174Z,7.32
2023-02-19T17:35:09.699Z,10.18
2023-02-19T17:37:36.282Z,5.47
2023-02-19T17:40:03.305Z,10.70
2023-02-19T17:42:29.906Z,7.78
2023-02-19T17:44:56.589Z,9.38
2023-02-19T17:47:23.087Z,7.90
2023-02-19T17:49:49.652Z,6.70
2023-02-19T17:52:17.852Z,5.47
2023-02-19T17:54:44.529Z,6.93
2023-02-19T17:57:11.032Z,8.82
2023-02-19T17:59:37.516Z,8.73
2023-02-19T18:02:04.278Z,6.88
2023-02-19T18:04:30.817Z,6.88
2023-02-19T18:06:57.346Z,6.93
2023-02-19T18:09:24.049Z,6.78
2023-02-19T18:11:50.605Z,8.00
2023-02-19T18:14:17.213Z,5.55
2023-02-19T18:16:50.419Z,8.82
2023-02-19T18:19:17.320Z,7.20
2023-02-19T18:21:44.090Z,9.13
2023-02-19T18:24:10.664Z,8.07
2023-02-19T18:26:37.163Z,8.32
2023-02-19T18:29:05.872Z,12.52
2023-02-19T18:31:33.566Z,7.18
2023-02-19T18:34:00.130Z,5.40
2023-02-19T18:36:26.714Z,7.75
2023-02-19T18:38:53.349Z,11.23
2023-02-19T18:41:21.217Z,7.35
2023-02-19T18:43:48.368Z,9.02
2023-02-19T18:46:15.042Z,7.78
2023-02-19T18:48:41.723Z,7.63
2023-02-19T18:51:12.170Z,6.00
2023-02-19T18:53:38.984Z,6.75
2023-02-19T18:56:05.923Z,6.32
2023-02-19T18:58:32.567Z,11.57
2023-02-19T19:00:59.666Z,8.15
2023-02-19T19:03:26.250Z,6.85
2023-02-19T19:05:52.833Z,6.05
2023-02-19T19:08:19.309Z,11.57
2023-02-19T19:10:45.802Z,9.07
2023-02-19T19:13:12.347Z,7.10
2023-02-19T19:15:41.407Z,8.30
2023-02-19T19:18:09.133Z,7.63
2023-02-19T19:20:35.658Z,7.65
2023-02-19T19:23:02.419Z,7.75
2023-02-19T19:25:28.890Z,9.15
2023-02-19T19:27:56.170Z,10.00
2023-02-19T19:30:22.823Z,9.52
2023-02-19T19:32:50.360Z,10.23
2023-02-19T19:35:18.639Z,12.07
2023-02-19T19:37:45.606Z,7.57
2023-02-19T19:40:12.830Z,9.38
2023-02-19T19:42:39.444Z,9.90
2023-02-19T19:45:06.515Z,9.07
2023-02-19T19:47:33.185Z,7.63
2023-02-19T19:49:59.703Z,10.35
2023-02-19T19:52:26.192Z,10.77
2023-02-19T19:54:54.356Z,7.97
2023-02-19T19:57:21.396Z,8.38
2023-02-19T19:59:51.726Z,8.65
2023-02-19T20:02:18.412Z,9.45
2023-02-19T20:04:45.235Z,9.88
2023-02-19T20:07:11.809Z,12.75
2023-02-19T20:09:38.279Z,9.45
2023-02-19T20:12:05.285Z,7.80
2023-02-19T20:14:31.964Z,12.45
2023-02-19T20:16:58.665Z,10.00
2023-02-19T20:19:26.023Z,10.13
2023-02-19T20:21:53.721Z,10.20
2023-02-19T20:24:26.108Z,10.05
2023-02-19T20:27:01.034Z,11.40
2023-02-19T20:29:31.751Z,12.65
2023-02-19T20:32:00.362Z,10.82
2023-02-19T20:34:27.406Z,12.25
2023-02-19T20:36:54.393Z,8.07
2023-02-19T20:39:21.737Z,10.18
2023-02-19T20:41:52.089Z,8.75
2023-02-19T20:44:19.431Z,7.97
2023-02-19T20:46:49.167Z,12.68
2023-02-19T20:49:17.998Z,10.25
2023-02-19T20:51:46.682Z,8.60
2023-02-19T20:54:13.894Z,11.40
2023-02-19T20:56:45.066Z,15.63
2023-02-19T20:59:12.390Z,12.75
2023-02-19T21:01:39.590Z,9.13
2023-02-19T21:04:06.409Z,10.57
2023-02-19T21:06:33.117Z,12.98
2023-02-19T21:08:59.719Z,14.05
2023-02-19T21:11:26.289Z,12.73
2023-02-19T21:13:52.903Z,13.85
2023-02-19T21:16:19.633Z,20.58
2023-02-19T21:18:46.203Z,27.15
2023-02-19T21:21:12.832Z,29.00
2023-02-19T21:23:39.478Z,25.60
2023-02-19T21:26:06.071Z,16.33
2023-02-19T21:28:32.590Z,12.45
2023-02-19T21:30:59.140Z,10.00
2023-02-19T21:33:25.759Z,10.20
2023-02-19T21:35:52.268Z,8.77
2023-02-19T21:38:18.780Z,9.60
2023-02-19T21:40:45.292Z,12.30
2023-02-19T21:43:12.837Z,9.07
2023-02-19T21:45:39.470Z,11.90
2023-02-19T21:48:07.986Z,10.52
2023-02-19T21:50:34.693Z,10.00
2023-02-19T21:53:01.506Z,11.10
2023-02-19T21:55:28.989Z,12.70
2023-02-19T21:57:55.530Z,10.10
2023-02-19T22:00:22.118Z,13.45
2023-02-19T22:02:48.633Z,10.60
2023-02-19T22:05:15.572Z,10.52
2023-02-19T22:07:42.418Z,11.52
2023-02-19T22:10:09.597Z,10.52
2023-02-19T22:12:36.084Z,10.60
2023-02-19T22:15:02.598Z,12.50
2023-02-19T22:17:29.105Z,8.63
2023-02-19T22:19:55.581Z,11.05
2023-02-19T22:22:22.096Z,10.57
2023-02-19T22:24:48.579Z,11.20
2023-02-19T22:27:15.062Z,11.43
2023-02-19T22:29:41.569Z,9.13
2023-02-19T22:32:08.389Z,10.35
2023-02-19T22:34:40.037Z,14.43
2023-02-19T22:37:06.553Z,11.73
2023-02-19T22:39:33.043Z,11.75
2023-02-19T22:41:59.855Z,9.60
2023-02-19T22:44:26.468Z,9.65
2023-02-19T22:46:55.347Z,11.25
2023-02-19T22:49:23.092Z,11.35
2023-02-19T22:51:59.980Z,9.65
2023-02-19T22:54:27.184Z,10.38
2023-02-19T22:56:55.134Z,11.05
2023-02-19T22:59:22.730Z,9.32
2023-02-19T23:01:49.955Z,10.40
2023-02-19T23:04:16.962Z,10.23
2023-02-19T23:06:47.090Z,9.88
2023-02-19T23:09:21.513Z,10.20
2023-02-19T23:11:48.241Z,14.57
2023-02-19T23:14:23.585Z,13.40
2023-02-19T23:16:50.131Z,12.10
2023-02-19T23:19:16.712Z,10.55
2023-02-19T23:21:44.892Z,10.25
2023-02-19T23:24:12.625Z,11.18
2023-02-19T23:26:44.039Z,10.18
2023-02-19T23:29:10.935Z,7.75
2023-02-19T23:31:37.693Z,11.18
2023-02-19T23:34:04.380Z,12.98
2023-02-19T23:36:30.823Z,9.75
2023-02-19T23:38:57.291Z,12.55
2023-02-19T23:41:23.792Z,10.15
2023-02-19T23:43:50.455Z,8.40
2023-02-19T23:46:18.366Z,10.60
2023-02-19T23:48:46.074Z,10.65
2023-02-19T23:51:12.934Z,15.15
2023-02-19T23:53:39.554Z,15.27
2023-02-19T23:56:06.716Z,10.63
2023-02-19T23:58:33.284Z,10.70
